sensor_id;sensor_type;location;lat;lon;timestamp;temperature;humidity
19847;DHT22;10084;50.518;8.588;2023-07-08T00:00:21;20.60;61.00
19847;DHT22;10084;50.518;8.588;2023-07-08T00:02:48;20.60;61.10
19847;DHT22;10084;50.518;8.588;2023-07-08T00:05:16;20.60;61.10
19847;DHT22;10084;50.518;8.588;2023-07-08T00:07:42;20.60;61.10
19847;DHT22;10084;50.518;8.588;2023-07-08T00:10:18;20.60;61.20
19847;DHT22;10084;50.518;8.588;2023-07-08T00:12:46;20.60;61.50
19847;DHT22;10084;50.518;8.588;2023-07-08T00:15:12;20.60;61.50
19847;DHT22;10084;50.518;8.588;2023-07-08T00:17:38;20.50;61.50
19847;DHT22;10084;50.518;8.588;2023-07-08T00:20:17;20.50;61.50
19847;DHT22;10084;50.518;8.588;2023-07-08T00:22:43;20.40;61.70
19847;DHT22;10084;50.518;8.588;2023-07-08T00:25:13;20.40;61.70
19847;DHT22;10084;50.518;8.588;2023-07-08T00:27:40;20.40;61.80
19847;DHT22;10084;50.518;8.588;2023-07-08T00:32:44;20.30;61.90
19847;DHT22;10084;50.518;8.588;2023-07-08T00:35:10;20.30;61.80
19847;DHT22;10084;50.518;8.588;2023-07-08T00:37:36;20.20;61.80
19847;DHT22;10084;50.518;8.588;2023-07-08T00:40:16;20.20;62.00
19847;DHT22;10084;50.518;8.588;2023-07-08T00:42:43;20.20;62.20
19847;DHT22;10084;50.518;8.588;2023-07-08T00:45:22;20.20;62.20
19847;DHT22;10084;50.518;8.588;2023-07-08T00:47:50;20.20;62.30
19847;DHT22;10084;50.518;8.588;2023-07-08T00:50:17;20.20;62.20
19847;DHT22;10084;50.518;8.588;2023-07-08T00:52:44;20.20;62.20
19847;DHT22;10084;50.518;8.588;2023-07-08T00:55:11;20.20;62.20
19847;DHT22;10084;50.518;8.588;2023-07-08T00:57:40;20.10;62.30
19847;DHT22;10084;50.518;8.588;2023-07-08T01:00:10;20.10;62.40
19847;DHT22;10084;50.518;8.588;2023-07-08T01:02:42;20.00;62.50
19847;DHT22;10084;50.518;8.588;2023-07-08T01:05:18;19.90;62.40
19847;DHT22;10084;50.518;8.588;2023-07-08T01:07:49;19.90;62.60
19847;DHT22;10084;50.518;8.588;2023-07-08T01:10:22;19.90;62.70
19847;DHT22;10084;50.518;8.588;2023-07-08T01:12:54;19.90;62.70
19847;DHT22;10084;50.518;8.588;2023-07-08T01:15:22;19.90;62.90
19847;DHT22;10084;50.518;8.588;2023-07-08T01:17:49;19.80;62.90
19847;DHT22;10084;50.518;8.588;2023-07-08T01:20:19;19.80;63.00
19847;DHT22;10084;50.518;8.588;2023-07-08T01:22:45;19.80;63.10
19847;DHT22;10084;50.518;8.588;2023-07-08T01:25:12;19.80;63.10
19847;DHT22;10084;50.518;8.588;2023-07-08T01:27:42;19.80;63.00
19847;DHT22;10084;50.518;8.588;2023-07-08T01:30:10;19.80;63.10
19847;DHT22;10084;50.518;8.588;2023-07-08T01:32:40;19.80;62.90
19847;DHT22;10084;50.518;8.588;2023-07-08T01:35:09;19.90;63.00
19847;DHT22;10084;50.518;8.588;2023-07-08T01:37:41;19.90;63.10
19847;DHT22;10084;50.518;8.588;2023-07-08T01:40:33;19.80;63.10
19847;DHT22;10084;50.518;8.588;2023-07-08T01:43:00;19.80;63.30
19847;DHT22;10084;50.518;8.588;2023-07-08T01:45:38;19.80;63.20
19847;DHT22;10084;50.518;8.588;2023-07-08T01:48:17;19.70;63.30
19847;DHT22;10084;50.518;8.588;2023-07-08T01:50:56;19.70;63.40
19847;DHT22;10084;50.518;8.588;2023-07-08T01:53:32;19.60;63.50
19847;DHT22;10084;50.518;8.588;2023-07-08T01:55:58;19.60;63.60
19847;DHT22;10084;50.518;8.588;2023-07-08T01:58:25;19.60;63.60
19847;DHT22;10084;50.518;8.588;2023-07-08T02:00:51;19.60;63.70
19847;DHT22;10084;50.518;8.588;2023-07-08T02:03:17;19.60;63.80
19847;DHT22;10084;50.518;8.588;2023-07-08T02:05:43;19.60;63.90
19847;DHT22;10084;50.518;8.588;2023-07-08T02:08:09;19.60;63.80
19847;DHT22;10084;50.518;8.588;2023-07-08T02:10:38;19.60;63.90
19847;DHT22;10084;50.518;8.588;2023-07-08T02:13:04;19.70;63.90
19847;DHT22;10084;50.518;8.588;2023-07-08T02:15:30;19.70;63.80
19847;DHT22;10084;50.518;8.588;2023-07-08T02:17:56;19.70;63.90
19847;DHT22;10084;50.518;8.588;2023-07-08T02:20:23;19.70;63.90
19847;DHT22;10084;50.518;8.588;2023-07-08T02:22:48;19.70;63.80
19847;DHT22;10084;50.518;8.588;2023-07-08T02:25:14;19.70;63.90
19847;DHT22;10084;50.518;8.588;2023-07-08T02:27:41;19.70;63.90
19847;DHT22;10084;50.518;8.588;2023-07-08T02:30:08;19.60;64.00
19847;DHT22;10084;50.518;8.588;2023-07-08T02:32:34;19.60;64.10
19847;DHT22;10084;50.518;8.588;2023-07-08T02:35:08;19.60;64.10
19847;DHT22;10084;50.518;8.588;2023-07-08T02:37:34;19.60;64.30
19847;DHT22;10084;50.518;8.588;2023-07-08T02:40:00;19.60;64.40
19847;DHT22;10084;50.518;8.588;2023-07-08T02:42:26;19.60;64.40
19847;DHT22;10084;50.518;8.588;2023-07-08T02:44:51;19.60;64.50
19847;DHT22;10084;50.518;8.588;2023-07-08T02:47:17;19.60;64.40
19847;DHT22;10084;50.518;8.588;2023-07-08T02:49:43;19.60;64.40
19847;DHT22;10084;50.518;8.588;2023-07-08T02:52:09;19.60;64.50
19847;DHT22;10084;50.518;8.588;2023-07-08T02:54:35;19.60;64.50
19847;DHT22;10084;50.518;8.588;2023-07-08T02:57:01;19.60;64.50
19847;DHT22;10084;50.518;8.588;2023-07-08T02:59:26;19.60;64.70
19847;DHT22;10084;50.518;8.588;2023-07-08T03:01:55;19.50;64.70
19847;DHT22;10084;50.518;8.588;2023-07-08T03:04:20;19.50;64.90
19847;DHT22;10084;50.518;8.588;2023-07-08T03:06:49;19.60;65.00
19847;DHT22;10084;50.518;8.588;2023-07-08T03:09:15;19.50;65.00
19847;DHT22;10084;50.518;8.588;2023-07-08T03:11:41;19.50;65.10
19847;DHT22;10084;50.518;8.588;2023-07-08T03:14:07;19.50;65.10
19847;DHT22;10084;50.518;8.588;2023-07-08T03:16:33;19.50;65.10
19847;DHT22;10084;50.518;8.588;2023-07-08T03:18:59;19.50;65.20
19847;DHT22;10084;50.518;8.588;2023-07-08T03:21:25;19.50;65.40
19847;DHT22;10084;50.518;8.588;2023-07-08T03:23:51;19.50;65.40
19847;DHT22;10084;50.518;8.588;2023-07-08T03:26:22;19.50;65.40
19847;DHT22;10084;50.518;8.588;2023-07-08T03:28:50;19.50;65.50
19847;DHT22;10084;50.518;8.588;2023-07-08T03:31:17;19.50;65.60
19847;DHT22;10084;50.518;8.588;2023-07-08T03:33:43;19.50;65.60
19847;DHT22;10084;50.518;8.588;2023-07-08T03:36:15;19.50;65.60
19847;DHT22;10084;50.518;8.588;2023-07-08T03:38:55;19.40;65.70
19847;DHT22;10084;50.518;8.588;2023-07-08T03:41:22;19.50;65.80
19847;DHT22;10084;50.518;8.588;2023-07-08T03:43:49;19.50;65.90
19847;DHT22;10084;50.518;8.588;2023-07-08T03:46:17;19.40;65.80
19847;DHT22;10084;50.518;8.588;2023-07-08T03:48:43;19.50;66.00
19847;DHT22;10084;50.518;8.588;2023-07-08T03:51:31;19.50;66.00
19847;DHT22;10084;50.518;8.588;2023-07-08T03:53:57;19.50;66.20
19847;DHT22;10084;50.518;8.588;2023-07-08T03:56:24;19.50;66.10
19847;DHT22;10084;50.518;8.588;2023-07-08T03:58:51;19.50;66.10
19847;DHT22;10084;50.518;8.588;2023-07-08T04:01:19;19.60;66.20
19847;DHT22;10084;50.518;8.588;2023-07-08T04:03:46;19.60;66.30
19847;DHT22;10084;50.518;8.588;2023-07-08T04:06:12;19.60;66.30
19847;DHT22;10084;50.518;8.588;2023-07-08T04:08:38;19.60;66.30
19847;DHT22;10084;50.518;8.588;2023-07-08T04:11:04;19.60;66.20
19847;DHT22;10084;50.518;8.588;2023-07-08T04:13:31;19.70;66.40
19847;DHT22;10084;50.518;8.588;2023-07-08T04:16:02;19.70;66.30
19847;DHT22;10084;50.518;8.588;2023-07-08T04:18:28;19.70;66.40
19847;DHT22;10084;50.518;8.588;2023-07-08T04:20:54;19.70;66.40
19847;DHT22;10084;50.518;8.588;2023-07-08T04:23:20;19.70;66.50
19847;DHT22;10084;50.518;8.588;2023-07-08T04:25:51;19.70;66.50
19847;DHT22;10084;50.518;8.588;2023-07-08T04:28:18;19.70;66.70
19847;DHT22;10084;50.518;8.588;2023-07-08T04:30:44;19.80;66.80
19847;DHT22;10084;50.518;8.588;2023-07-08T04:33:14;19.80;67.50
19847;DHT22;10084;50.518;8.588;2023-07-08T04:35:41;19.80;67.00
19847;DHT22;10084;50.518;8.588;2023-07-08T04:38:22;19.80;66.90
19847;DHT22;10084;50.518;8.588;2023-07-08T04:40:49;19.80;67.10
19847;DHT22;10084;50.518;8.588;2023-07-08T04:43:17;19.90;67.10
19847;DHT22;10084;50.518;8.588;2023-07-08T04:45:45;19.90;67.00
19847;DHT22;10084;50.518;8.588;2023-07-08T04:48:13;20.00;67.00
19847;DHT22;10084;50.518;8.588;2023-07-08T04:50:44;20.00;66.90
19847;DHT22;10084;50.518;8.588;2023-07-08T04:53:11;20.10;66.90
19847;DHT22;10084;50.518;8.588;2023-07-08T04:55:42;20.20;66.80
19847;DHT22;10084;50.518;8.588;2023-07-08T04:58:09;20.30;66.80
19847;DHT22;10084;50.518;8.588;2023-07-08T05:00:35;20.30;66.60
19847;DHT22;10084;50.518;8.588;2023-07-08T05:03:01;20.40;66.50
19847;DHT22;10084;50.518;8.588;2023-07-08T05:05:26;20.50;66.40
19847;DHT22;10084;50.518;8.588;2023-07-08T05:07:52;20.60;66.30
19847;DHT22;10084;50.518;8.588;2023-07-08T05:10:19;20.70;66.20
19847;DHT22;10084;50.518;8.588;2023-07-08T05:12:45;20.80;66.10
19847;DHT22;10084;50.518;8.588;2023-07-08T05:15:12;21.00;66.10
19847;DHT22;10084;50.518;8.588;2023-07-08T05:17:39;21.10;66.00
19847;DHT22;10084;50.518;8.588;2023-07-08T05:20:06;21.20;65.60
19847;DHT22;10084;50.518;8.588;2023-07-08T05:22:33;21.40;65.40
19847;DHT22;10084;50.518;8.588;2023-07-08T05:24:59;21.50;65.30
19847;DHT22;10084;50.518;8.588;2023-07-08T05:27:25;21.50;65.10
19847;DHT22;10084;50.518;8.588;2023-07-08T05:29:51;21.60;65.00
19847;DHT22;10084;50.518;8.588;2023-07-08T05:32:17;21.60;64.90
19847;DHT22;10084;50.518;8.588;2023-07-08T05:34:43;21.70;64.90
19847;DHT22;10084;50.518;8.588;2023-07-08T05:37:10;21.70;64.90
19847;DHT22;10084;50.518;8.588;2023-07-08T05:39:36;21.70;64.80
19847;DHT22;10084;50.518;8.588;2023-07-08T05:42:02;21.80;64.90
19847;DHT22;10084;50.518;8.588;2023-07-08T05:44:28;21.80;64.90
19847;DHT22;10084;50.518;8.588;2023-07-08T05:46:54;21.90;65.00
19847;DHT22;10084;50.518;8.588;2023-07-08T05:49:19;22.00;65.10
19847;DHT22;10084;50.518;8.588;2023-07-08T05:51:45;22.20;65.10
19847;DHT22;10084;50.518;8.588;2023-07-08T05:54:11;22.40;65.10
19847;DHT22;10084;50.518;8.588;2023-07-08T05:56:37;22.70;64.80
19847;DHT22;10084;50.518;8.588;2023-07-08T05:59:03;22.80;64.30
19847;DHT22;10084;50.518;8.588;2023-07-08T06:01:29;23.00;64.10
19847;DHT22;10084;50.518;8.588;2023-07-08T06:03:55;23.00;63.80
19847;DHT22;10084;50.518;8.588;2023-07-08T06:06:24;23.00;63.60
19847;DHT22;10084;50.518;8.588;2023-07-08T06:08:50;23.20;63.80
19847;DHT22;10084;50.518;8.588;2023-07-08T06:11:15;23.60;63.70
19847;DHT22;10084;50.518;8.588;2023-07-08T06:13:41;23.90;63.10
19847;DHT22;10084;50.518;8.588;2023-07-08T06:16:07;24.50;62.80
19847;DHT22;10084;50.518;8.588;2023-07-08T06:18:33;25.10;62.10
19847;DHT22;10084;50.518;8.588;2023-07-08T06:20:59;25.80;61.40
19847;DHT22;10084;50.518;8.588;2023-07-08T06:23:25;26.60;60.60
19847;DHT22;10084;50.518;8.588;2023-07-08T06:25:51;27.50;59.70
19847;DHT22;10084;50.518;8.588;2023-07-08T06:28:17;27.70;58.60
19847;DHT22;10084;50.518;8.588;2023-07-08T06:30:43;27.50;58.10
19847;DHT22;10084;50.518;8.588;2023-07-08T06:33:09;27.30;58.10
19847;DHT22;10084;50.518;8.588;2023-07-08T06:35:37;27.00;57.80
19847;DHT22;10084;50.518;8.588;2023-07-08T06:38:03;26.70;57.70
19847;DHT22;10084;50.518;8.588;2023-07-08T06:40:29;26.50;57.70
19847;DHT22;10084;50.518;8.588;2023-07-08T06:42:55;26.10;57.60
19847;DHT22;10084;50.518;8.588;2023-07-08T06:45:36;25.80;57.70
19847;DHT22;10084;50.518;8.588;2023-07-08T06:48:02;25.50;57.80
19847;DHT22;10084;50.518;8.588;2023-07-08T06:50:27;25.30;58.00
19847;DHT22;10084;50.518;8.588;2023-07-08T06:52:53;25.20;58.20
19847;DHT22;10084;50.518;8.588;2023-07-08T06:55:19;25.30;58.20
19847;DHT22;10084;50.518;8.588;2023-07-08T06:57:45;25.30;58.10
19847;DHT22;10084;50.518;8.588;2023-07-08T07:00:11;25.30;57.90
19847;DHT22;10084;50.518;8.588;2023-07-08T07:02:37;25.30;57.80
19847;DHT22;10084;50.518;8.588;2023-07-08T07:05:04;25.20;57.80
19847;DHT22;10084;50.518;8.588;2023-07-08T07:07:30;25.20;57.80
19847;DHT22;10084;50.518;8.588;2023-07-08T07:09:56;25.10;57.80
19847;DHT22;10084;50.518;8.588;2023-07-08T07:12:24;25.00;57.70
19847;DHT22;10084;50.518;8.588;2023-07-08T07:14:50;25.00;57.90
19847;DHT22;10084;50.518;8.588;2023-07-08T07:17:21;25.00;57.80
19847;DHT22;10084;50.518;8.588;2023-07-08T07:19:47;25.00;57.90
19847;DHT22;10084;50.518;8.588;2023-07-08T07:22:13;25.10;57.80
19847;DHT22;10084;50.518;8.588;2023-07-08T07:24:39;25.10;57.50
19847;DHT22;10084;50.518;8.588;2023-07-08T07:27:05;25.10;57.60
19847;DHT22;10084;50.518;8.588;2023-07-08T07:29:42;25.10;57.50
19847;DHT22;10084;50.518;8.588;2023-07-08T07:32:08;25.10;57.40
19847;DHT22;10084;50.518;8.588;2023-07-08T07:34:34;25.00;57.50
19847;DHT22;10084;50.518;8.588;2023-07-08T07:37:00;25.00;57.50
19847;DHT22;10084;50.518;8.588;2023-07-08T07:39:26;24.90;57.50
19847;DHT22;10084;50.518;8.588;2023-07-08T07:41:52;24.90;57.50
19847;DHT22;10084;50.518;8.588;2023-07-08T07:44:18;24.80;57.70
19847;DHT22;10084;50.518;8.588;2023-07-08T07:46:43;24.80;57.70
19847;DHT22;10084;50.518;8.588;2023-07-08T07:49:09;24.80;57.70
19847;DHT22;10084;50.518;8.588;2023-07-08T07:51:35;24.80;57.80
19847;DHT22;10084;50.518;8.588;2023-07-08T07:54:01;24.80;57.80
19847;DHT22;10084;50.518;8.588;2023-07-08T07:56:26;24.80;57.80
19847;DHT22;10084;50.518;8.588;2023-07-08T07:58:52;24.90;57.90
19847;DHT22;10084;50.518;8.588;2023-07-08T08:01:18;24.90;57.90
19847;DHT22;10084;50.518;8.588;2023-07-08T08:03:45;25.00;57.90
19847;DHT22;10084;50.518;8.588;2023-07-08T08:06:11;25.20;57.90
19847;DHT22;10084;50.518;8.588;2023-07-08T08:08:36;25.30;57.80
19847;DHT22;10084;50.518;8.588;2023-07-08T08:11:02;25.40;57.70
19847;DHT22;10084;50.518;8.588;2023-07-08T08:13:28;25.40;57.50
19847;DHT22;10084;50.518;8.588;2023-07-08T08:15:57;25.40;57.50
19847;DHT22;10084;50.518;8.588;2023-07-08T08:18:23;25.40;57.40
19847;DHT22;10084;50.518;8.588;2023-07-08T08:20:51;25.40;57.30
19847;DHT22;10084;50.518;8.588;2023-07-08T08:23:17;25.30;57.20
19847;DHT22;10084;50.518;8.588;2023-07-08T08:25:42;25.30;57.30
19847;DHT22;10084;50.518;8.588;2023-07-08T08:28:08;25.30;57.30
19847;DHT22;10084;50.518;8.588;2023-07-08T08:30:34;25.20;57.30
19847;DHT22;10084;50.518;8.588;2023-07-08T08:33:01;25.20;57.40
19847;DHT22;10084;50.518;8.588;2023-07-08T08:35:27;25.20;57.50
19847;DHT22;10084;50.518;8.588;2023-07-08T08:37:52;25.10;57.50
19847;DHT22;10084;50.518;8.588;2023-07-08T08:40:19;25.10;57.60
19847;DHT22;10084;50.518;8.588;2023-07-08T08:42:58;25.20;57.80
19847;DHT22;10084;50.518;8.588;2023-07-08T08:45:27;25.30;57.80
19847;DHT22;10084;50.518;8.588;2023-07-08T08:48:00;25.40;57.70
19847;DHT22;10084;50.518;8.588;2023-07-08T08:50:35;25.50;57.60
19847;DHT22;10084;50.518;8.588;2023-07-08T08:53:04;25.60;57.70
19847;DHT22;10084;50.518;8.588;2023-07-08T08:55:31;25.60;57.60
19847;DHT22;10084;50.518;8.588;2023-07-08T08:58:55;25.70;57.60
19847;DHT22;10084;50.518;8.588;2023-07-08T09:01:04;25.90;57.60
19847;DHT22;10084;50.518;8.588;2023-07-08T09:06:00;26.10;57.20
19847;DHT22;10084;50.518;8.588;2023-07-08T09:08:32;26.10;56.80
19847;DHT22;10084;50.518;8.588;2023-07-08T09:11:09;26.20;57.00
19847;DHT22;10084;50.518;8.588;2023-07-08T09:13:37;26.20;56.00
19847;DHT22;10084;50.518;8.588;2023-07-08T09:19:29;26.20;55.40
19847;DHT22;10084;50.518;8.588;2023-07-08T09:22:04;26.30;55.40
19847;DHT22;10084;50.518;8.588;2023-07-08T09:24:53;26.30;55.20
19847;DHT22;10084;50.518;8.588;2023-07-08T09:27:21;26.30;54.90
19847;DHT22;10084;50.518;8.588;2023-07-08T09:29:47;26.30;55.50
19847;DHT22;10084;50.518;8.588;2023-07-08T09:32:21;26.40;54.70
19847;DHT22;10084;50.518;8.588;2023-07-08T09:34:54;26.40;54.60
19847;DHT22;10084;50.518;8.588;2023-07-08T09:37:29;26.50;54.50
19847;DHT22;10084;50.518;8.588;2023-07-08T09:39:56;26.50;54.20
19847;DHT22;10084;50.518;8.588;2023-07-08T09:42:27;26.60;54.90
19847;DHT22;10084;50.518;8.588;2023-07-08T09:45:02;26.60;54.00
19847;DHT22;10084;50.518;8.588;2023-07-08T09:47:36;26.60;53.90
19847;DHT22;10084;50.518;8.588;2023-07-08T09:50:09;26.70;53.70
19847;DHT22;10084;50.518;8.588;2023-07-08T09:52:41;26.70;53.70
19847;DHT22;10084;50.518;8.588;2023-07-08T09:55:11;26.80;53.70
19847;DHT22;10084;50.518;8.588;2023-07-08T09:57:37;26.90;53.80
19847;DHT22;10084;50.518;8.588;2023-07-08T10:00:09;27.00;53.70
19847;DHT22;10084;50.518;8.588;2023-07-08T10:03:05;27.20;53.60
19847;DHT22;10084;50.518;8.588;2023-07-08T10:05:35;27.30;53.30
19847;DHT22;10084;50.518;8.588;2023-07-08T10:08:03;27.50;53.10
19847;DHT22;10084;50.518;8.588;2023-07-08T10:10:38;27.60;53.00
19847;DHT22;10084;50.518;8.588;2023-07-08T10:13:12;27.70;52.70
19847;DHT22;10084;50.518;8.588;2023-07-08T10:15:44;27.80;52.50
19847;DHT22;10084;50.518;8.588;2023-07-08T10:18:25;27.90;52.30
19847;DHT22;10084;50.518;8.588;2023-07-08T10:21:08;28.00;52.20
19847;DHT22;10084;50.518;8.588;2023-07-08T10:23:50;28.00;52.00
19847;DHT22;10084;50.518;8.588;2023-07-08T10:26:27;28.10;51.80
19847;DHT22;10084;50.518;8.588;2023-07-08T10:29:08;28.20;51.90
19847;DHT22;10084;50.518;8.588;2023-07-08T10:31:56;28.20;51.70
19847;DHT22;10084;50.518;8.588;2023-07-08T10:34:54;28.30;51.70
19847;DHT22;10084;50.518;8.588;2023-07-08T10:46:11;28.60;50.70
19847;DHT22;10084;50.518;8.588;2023-07-08T10:49:05;28.60;50.60
19847;DHT22;10084;50.518;8.588;2023-07-08T10:57:28;28.80;50.40
19847;DHT22;10084;50.518;8.588;2023-07-08T11:00:02;28.80;50.10
19847;DHT22;10084;50.518;8.588;2023-07-08T11:03:00;28.90;50.20
19847;DHT22;10084;50.518;8.588;2023-07-08T11:05:41;29.00;50.10
19847;DHT22;10084;50.518;8.588;2023-07-08T11:10:56;29.10;49.70
19847;DHT22;10084;50.518;8.588;2023-07-08T11:13:23;29.10;49.70
19847;DHT22;10084;50.518;8.588;2023-07-08T11:21:39;29.30;49.20
19847;DHT22;10084;50.518;8.588;2023-07-08T11:26:56;29.50;49.00
19847;DHT22;10084;50.518;8.588;2023-07-08T11:29:50;29.50;48.80
19847;DHT22;10084;50.518;8.588;2023-07-08T11:32:19;29.60;49.50
19847;DHT22;10084;50.518;8.588;2023-07-08T11:34:49;29.70;48.70
19847;DHT22;10084;50.518;8.588;2023-07-08T11:37:16;29.80;48.60
19847;DHT22;10084;50.518;8.588;2023-07-08T11:39:44;29.70;48.20
19847;DHT22;10084;50.518;8.588;2023-07-08T11:42:31;29.80;48.00
19847;DHT22;10084;50.518;8.588;2023-07-08T11:44:59;29.90;47.80
19847;DHT22;10084;50.518;8.588;2023-07-08T11:47:44;29.90;47.50
19847;DHT22;10084;50.518;8.588;2023-07-08T11:50:21;29.90;47.10
19847;DHT22;10084;50.518;8.588;2023-07-08T11:52:59;30.00;47.10
19847;DHT22;10084;50.518;8.588;2023-07-08T11:58:08;30.10;46.70
19847;DHT22;10084;50.518;8.588;2023-07-08T12:00:41;30.10;46.50
19847;DHT22;10084;50.518;8.588;2023-07-08T12:03:21;30.10;46.30
19847;DHT22;10084;50.518;8.588;2023-07-08T12:05:47;30.20;46.00
19847;DHT22;10084;50.518;8.588;2023-07-08T12:08:15;30.10;45.90
19847;DHT22;10084;50.518;8.588;2023-07-08T12:10:49;30.20;45.70
19847;DHT22;10084;50.518;8.588;2023-07-08T12:13:18;30.20;45.70
19847;DHT22;10084;50.518;8.588;2023-07-08T12:15:45;30.20;45.50
19847;DHT22;10084;50.518;8.588;2023-07-08T12:18:21;30.30;45.40
19847;DHT22;10084;50.518;8.588;2023-07-08T12:20:58;30.40;45.20
19847;DHT22;10084;50.518;8.588;2023-07-08T12:23:27;30.40;44.90
19847;DHT22;10084;50.518;8.588;2023-07-08T12:25:54;30.40;44.80
19847;DHT22;10084;50.518;8.588;2023-07-08T12:28:20;30.40;44.70
19847;DHT22;10084;50.518;8.588;2023-07-08T12:30:47;30.30;44.40
19847;DHT22;10084;50.518;8.588;2023-07-08T12:33:22;30.30;44.50
19847;DHT22;10084;50.518;8.588;2023-07-08T12:35:50;30.40;44.60
19847;DHT22;10084;50.518;8.588;2023-07-08T12:38:40;30.40;44.60
19847;DHT22;10084;50.518;8.588;2023-07-08T12:41:12;30.40;44.40
19847;DHT22;10084;50.518;8.588;2023-07-08T12:43:38;30.40;44.50
19847;DHT22;10084;50.518;8.588;2023-07-08T12:46:04;30.40;44.40
19847;DHT22;10084;50.518;8.588;2023-07-08T12:48:34;30.40;44.30
19847;DHT22;10084;50.518;8.588;2023-07-08T12:51:00;30.50;44.30
19847;DHT22;10084;50.518;8.588;2023-07-08T12:53:25;30.50;44.20
19847;DHT22;10084;50.518;8.588;2023-07-08T12:55:54;30.50;44.20
19847;DHT22;10084;50.518;8.588;2023-07-08T12:58:25;30.50;44.20
19847;DHT22;10084;50.518;8.588;2023-07-08T13:00:53;30.50;44.10
19847;DHT22;10084;50.518;8.588;2023-07-08T13:03:23;30.60;44.00
19847;DHT22;10084;50.518;8.588;2023-07-08T13:05:51;30.60;43.80
19847;DHT22;10084;50.518;8.588;2023-07-08T13:08:21;30.60;43.80
19847;DHT22;10084;50.518;8.588;2023-07-08T13:10:49;30.70;43.70
19847;DHT22;10084;50.518;8.588;2023-07-08T13:13:25;30.60;43.80
19847;DHT22;10084;50.518;8.588;2023-07-08T13:15:52;30.70;43.70
19847;DHT22;10084;50.518;8.588;2023-07-08T13:18:31;30.70;43.70
19847;DHT22;10084;50.518;8.588;2023-07-08T13:20:58;30.60;43.50
19847;DHT22;10084;50.518;8.588;2023-07-08T13:23:26;30.60;43.60
19847;DHT22;10084;50.518;8.588;2023-07-08T13:25:53;30.70;43.50
19847;DHT22;10084;50.518;8.588;2023-07-08T13:28:26;30.70;43.50
19847;DHT22;10084;50.518;8.588;2023-07-08T13:30:57;30.70;43.60
19847;DHT22;10084;50.518;8.588;2023-07-08T13:33:32;30.70;43.40
19847;DHT22;10084;50.518;8.588;2023-07-08T13:36:02;30.70;43.30
19847;DHT22;10084;50.518;8.588;2023-07-08T13:38:33;30.70;43.40
19847;DHT22;10084;50.518;8.588;2023-07-08T13:41:05;30.70;43.20
19847;DHT22;10084;50.518;8.588;2023-07-08T13:43:32;30.70;43.20
19847;DHT22;10084;50.518;8.588;2023-07-08T13:45:59;30.70;43.20
19847;DHT22;10084;50.518;8.588;2023-07-08T13:48:29;30.60;43.10
19847;DHT22;10084;50.518;8.588;2023-07-08T13:51:19;30.60;43.10
19847;DHT22;10084;50.518;8.588;2023-07-08T13:53:48;30.70;43.20
19847;DHT22;10084;50.518;8.588;2023-07-08T13:56:31;30.60;43.00
19847;DHT22;10084;50.518;8.588;2023-07-08T13:59:06;30.70;42.90
19847;DHT22;10084;50.518;8.588;2023-07-08T14:01:34;30.70;42.80
19847;DHT22;10084;50.518;8.588;2023-07-08T14:04:01;30.70;42.80
19847;DHT22;10084;50.518;8.588;2023-07-08T14:06:34;30.70;42.80
19847;DHT22;10084;50.518;8.588;2023-07-08T14:09:11;30.70;42.80
19847;DHT22;10084;50.518;8.588;2023-07-08T14:11:37;30.70;42.80
19847;DHT22;10084;50.518;8.588;2023-07-08T14:14:03;30.60;42.70
19847;DHT22;10084;50.518;8.588;2023-07-08T14:16:30;30.70;42.60
19847;DHT22;10084;50.518;8.588;2023-07-08T14:19:02;30.60;42.50
19847;DHT22;10084;50.518;8.588;2023-07-08T14:21:30;30.60;42.40
19847;DHT22;10084;50.518;8.588;2023-07-08T14:23:56;30.60;42.40
19847;DHT22;10084;50.518;8.588;2023-07-08T14:26:22;30.60;42.30
19847;DHT22;10084;50.518;8.588;2023-07-08T14:28:48;30.60;42.30
19847;DHT22;10084;50.518;8.588;2023-07-08T14:31:19;30.60;42.30
19847;DHT22;10084;50.518;8.588;2023-07-08T14:33:45;30.60;42.20
19847;DHT22;10084;50.518;8.588;2023-07-08T14:36:12;30.60;42.00
19847;DHT22;10084;50.518;8.588;2023-07-08T14:38:40;30.60;42.00
19847;DHT22;10084;50.518;8.588;2023-07-08T14:41:05;30.60;41.90
19847;DHT22;10084;50.518;8.588;2023-07-08T14:43:33;30.60;42.00
19847;DHT22;10084;50.518;8.588;2023-07-08T14:46:02;30.50;42.60
19847;DHT22;10084;50.518;8.588;2023-07-08T14:48:29;30.50;41.70
19847;DHT22;10084;50.518;8.588;2023-07-08T14:50:56;30.50;41.60
19847;DHT22;10084;50.518;8.588;2023-07-08T14:53:22;30.50;41.60
19847;DHT22;10084;50.518;8.588;2023-07-08T14:55:50;30.50;41.60
19847;DHT22;10084;50.518;8.588;2023-07-08T14:58:22;30.50;41.50
19847;DHT22;10084;50.518;8.588;2023-07-08T15:00:49;30.50;41.40
19847;DHT22;10084;50.518;8.588;2023-07-08T15:03:15;30.50;41.40
19847;DHT22;10084;50.518;8.588;2023-07-08T15:05:40;30.50;41.40
19847;DHT22;10084;50.518;8.588;2023-07-08T15:08:07;30.50;41.50
19847;DHT22;10084;50.518;8.588;2023-07-08T15:10:34;30.50;41.40
19847;DHT22;10084;50.518;8.588;2023-07-08T15:13:00;30.50;41.40
19847;DHT22;10084;50.518;8.588;2023-07-08T15:15:29;30.50;41.30
19847;DHT22;10084;50.518;8.588;2023-07-08T15:17:57;30.50;41.30
19847;DHT22;10084;50.518;8.588;2023-07-08T15:20:23;30.50;41.30
19847;DHT22;10084;50.518;8.588;2023-07-08T15:22:49;30.50;41.40
19847;DHT22;10084;50.518;8.588;2023-07-08T15:25:16;30.50;41.30
19847;DHT22;10084;50.518;8.588;2023-07-08T15:27:45;30.50;41.20
19847;DHT22;10084;50.518;8.588;2023-07-08T15:30:19;30.40;41.00
19847;DHT22;10084;50.518;8.588;2023-07-08T15:32:45;30.40;41.00
19847;DHT22;10084;50.518;8.588;2023-07-08T15:35:18;30.50;41.10
19847;DHT22;10084;50.518;8.588;2023-07-08T15:37:47;30.40;41.10
19847;DHT22;10084;50.518;8.588;2023-07-08T15:40:14;30.40;41.10
19847;DHT22;10084;50.518;8.588;2023-07-08T15:42:41;30.40;41.00
19847;DHT22;10084;50.518;8.588;2023-07-08T15:45:14;30.40;41.00
19847;DHT22;10084;50.518;8.588;2023-07-08T15:47:41;30.40;41.00
19847;DHT22;10084;50.518;8.588;2023-07-08T15:50:16;30.40;41.00
19847;DHT22;10084;50.518;8.588;2023-07-08T15:52:42;30.40;41.20
19847;DHT22;10084;50.518;8.588;2023-07-08T15:55:10;30.40;41.30
19847;DHT22;10084;50.518;8.588;2023-07-08T15:57:43;30.30;41.30
19847;DHT22;10084;50.518;8.588;2023-07-08T16:00:22;30.40;41.40
19847;DHT22;10084;50.518;8.588;2023-07-08T16:02:51;30.30;41.30
19847;DHT22;10084;50.518;8.588;2023-07-08T16:05:19;30.30;41.40
19847;DHT22;10084;50.518;8.588;2023-07-08T16:07:46;30.30;41.50
19847;DHT22;10084;50.518;8.588;2023-07-08T16:10:13;30.30;41.50
19847;DHT22;10084;50.518;8.588;2023-07-08T16:12:39;30.30;41.60
19847;DHT22;10084;50.518;8.588;2023-07-08T16:15:09;30.30;41.60
19847;DHT22;10084;50.518;8.588;2023-07-08T16:17:37;30.30;41.80
19847;DHT22;10084;50.518;8.588;2023-07-08T16:20:17;30.30;41.90